sensor_id;sensor_type;location;lat;lon;timestamp;P1;durP1;ratioP1;P2;durP2;ratioP2
33184;SDS011;19550;42.872;25.494;2023-09-08T00:00:57;17.13;;;8.23;;
33184;SDS011;19550;42.872;25.494;2023-09-08T00:03:27;16.10;;;7.47;;
33184;SDS011;19550;42.872;25.494;2023-09-08T00:05:54;13.07;;;7.88;;
33184;SDS011;19550;42.872;25.494;2023-09-08T00:08:20;15.27;;;7.50;;
33184;SDS011;19550;42.872;25.494;2023-09-08T00:10:49;17.30;;;8.18;;
33184;SDS011;19550;42.872;25.494;2023-09-08T00:13:17;14.10;;;7.40;;
33184;SDS011;19550;42.872;25.494;2023-09-08T00:15:43;12.30;;;7.40;;
33184;SDS011;19550;42.872;25.494;2023-09-08T00:18:10;12.10;;;7.32;;
33184;SDS011;19550;42.872;25.494;2023-09-08T00:20:39;13.80;;;7.53;;
33184;SDS011;19550;42.872;25.494;2023-09-08T00:23:07;21.77;;;7.90;;
33184;SDS011;19550;42.872;25.494;2023-09-08T00:25:33;12.75;;;7.47;;
33184;SDS011;19550;42.872;25.494;2023-09-08T00:28:00;13.25;;;7.32;;
33184;SDS011;19550;42.872;25.494;2023-09-08T00:30:28;15.98;;;7.90;;
33184;SDS011;19550;42.872;25.494;2023-09-08T00:32:55;11.43;;;7.70;;
33184;SDS011;19550;42.872;25.494;2023-09-08T00:35:22;12.85;;;7.65;;
33184;SDS011;19550;42.872;25.494;2023-09-08T00:37:50;20.02;;;8.48;;
33184;SDS011;19550;42.872;25.494;2023-09-08T00:40:17;19.67;;;7.22;;
33184;SDS011;19550;42.872;25.494;2023-09-08T00:42:44;11.60;;;7.43;;
33184;SDS011;19550;42.872;25.494;2023-09-08T00:45:13;14.65;;;8.48;;
33184;SDS011;19550;42.872;25.494;2023-09-08T00:47:39;12.13;;;7.80;;
33184;SDS011;19550;42.872;25.494;2023-09-08T00:50:07;24.63;;;8.10;;
33184;SDS011;19550;42.872;25.494;2023-09-08T00:52:34;14.68;;;7.80;;
33184;SDS011;19550;42.872;25.494;2023-09-08T00:55:02;19.25;;;8.40;;
33184;SDS011;19550;42.872;25.494;2023-09-08T00:57:30;12.60;;;7.10;;
33184;SDS011;19550;42.872;25.494;2023-09-08T00:59:57;16.77;;;7.35;;
33184;SDS011;19550;42.872;25.494;2023-09-08T01:02:25;11.73;;;7.30;;
33184;SDS011;19550;42.872;25.494;2023-09-08T01:04:52;14.88;;;7.53;;
33184;SDS011;19550;42.872;25.494;2023-09-08T01:07:19;11.75;;;6.80;;
33184;SDS011;19550;42.872;25.494;2023-09-08T01:09:47;14.13;;;7.45;;
33184;SDS011;19550;42.872;25.494;2023-09-08T01:12:16;14.38;;;8.35;;
33184;SDS011;19550;42.872;25.494;2023-09-08T01:14:43;10.38;;;7.55;;
33184;SDS011;19550;42.872;25.494;2023-09-08T01:17:10;15.30;;;7.60;;
33184;SDS011;19550;42.872;25.494;2023-09-08T01:19:37;16.75;;;7.63;;
33184;SDS011;19550;42.872;25.494;2023-09-08T01:22:11;11.35;;;7.93;;
33184;SDS011;19550;42.872;25.494;2023-09-08T01:25:12;13.07;;;7.78;;
33184;SDS011;19550;42.872;25.494;2023-09-08T01:27:45;13.77;;;7.55;;
33184;SDS011;19550;42.872;25.494;2023-09-08T01:30:14;12.05;;;7.43;;
33184;SDS011;19550;42.872;25.494;2023-09-08T01:32:42;22.02;;;7.45;;
33184;SDS011;19550;42.872;25.494;2023-09-08T01:35:10;12.27;;;6.97;;
33184;SDS011;19550;42.872;25.494;2023-09-08T01:37:39;19.63;;;7.65;;
33184;SDS011;19550;42.872;25.494;2023-09-08T01:40:07;15.07;;;7.47;;
33184;SDS011;19550;42.872;25.494;2023-09-08T01:42:36;16.92;;;8.13;;
33184;SDS011;19550;42.872;25.494;2023-09-08T01:45:04;14.40;;;8.00;;
33184;SDS011;19550;42.872;25.494;2023-09-08T01:47:32;23.50;;;10.60;;
33184;SDS011;19550;42.872;25.494;2023-09-08T01:49:59;17.17;;;10.82;;
33184;SDS011;19550;42.872;25.494;2023-09-08T01:52:26;17.38;;;9.93;;
33184;SDS011;19550;42.872;25.494;2023-09-08T01:54:53;23.73;;;12.40;;
33184;SDS011;19550;42.872;25.494;2023-09-08T01:57:20;21.92;;;11.68;;
33184;SDS011;19550;42.872;25.494;2023-09-08T01:59:48;15.55;;;10.43;;
33184;SDS011;19550;42.872;25.494;2023-09-08T02:02:15;13.70;;;9.50;;
33184;SDS011;19550;42.872;25.494;2023-09-08T02:04:42;13.70;;;9.75;;
33184;SDS011;19550;42.872;25.494;2023-09-08T02:07:08;22.60;;;9.23;;
33184;SDS011;19550;42.872;25.494;2023-09-08T02:09:36;14.70;;;10.63;;
33184;SDS011;19550;42.872;25.494;2023-09-08T02:12:04;20.52;;;9.50;;
33184;SDS011;19550;42.872;25.494;2023-09-08T02:14:31;15.98;;;8.70;;
33184;SDS011;19550;42.872;25.494;2023-09-08T02:16:59;11.65;;;7.68;;
33184;SDS011;19550;42.872;25.494;2023-09-08T02:19:27;20.95;;;8.93;;
33184;SDS011;19550;42.872;25.494;2023-09-08T02:21:54;33.70;;;15.73;;
33184;SDS011;19550;42.872;25.494;2023-09-08T02:24:21;30.00;;;16.05;;
33184;SDS011;19550;42.872;25.494;2023-09-08T02:26:47;21.85;;;14.02;;
33184;SDS011;19550;42.872;25.494;2023-09-08T02:29:14;22.13;;;11.88;;
33184;SDS011;19550;42.872;25.494;2023-09-08T02:31:41;17.95;;;12.20;;
33184;SDS011;19550;42.872;25.494;2023-09-08T02:34:10;26.50;;;15.85;;
33184;SDS011;19550;42.872;25.494;2023-09-08T02:36:37;26.03;;;16.63;;
33184;SDS011;19550;42.872;25.494;2023-09-08T02:39:04;20.15;;;10.63;;
33184;SDS011;19550;42.872;25.494;2023-09-08T02:41:32;25.13;;;10.88;;
33184;SDS011;19550;42.872;25.494;2023-09-08T02:43:59;16.33;;;10.32;;
33184;SDS011;19550;42.872;25.494;2023-09-08T02:46:26;14.85;;;8.57;;
33184;SDS011;19550;42.872;25.494;2023-09-08T02:48:53;12.82;;;8.13;;
33184;SDS011;19550;42.872;25.494;2023-09-08T02:51:21;12.50;;;7.68;;
33184;SDS011;19550;42.872;25.494;2023-09-08T02:53:48;13.18;;;7.85;;
33184;SDS011;19550;42.872;25.494;2023-09-08T02:56:14;13.00;;;7.90;;
33184;SDS011;19550;42.872;25.494;2023-09-08T02:58:41;11.05;;;7.03;;
33184;SDS011;19550;42.872;25.494;2023-09-08T03:01:09;17.45;;;7.47;;
33184;SDS011;19550;42.872;25.494;2023-09-08T03:03:38;12.05;;;6.75;;
33184;SDS011;19550;42.872;25.494;2023-09-08T03:06:05;9.77;;;7.00;;
33184;SDS011;19550;42.872;25.494;2023-09-08T03:08:34;12.23;;;7.03;;
33184;SDS011;19550;42.872;25.494;2023-09-08T03:11:01;17.65;;;6.82;;
33184;SDS011;19550;42.872;25.494;2023-09-08T03:13:29;11.82;;;5.95;;
33184;SDS011;19550;42.872;25.494;2023-09-08T03:15:56;17.17;;;6.53;;
33184;SDS011;19550;42.872;25.494;2023-09-08T03:18:23;13.05;;;6.97;;
33184;SDS011;19550;42.872;25.494;2023-09-08T03:20:50;10.73;;;6.80;;
33184;SDS011;19550;42.872;25.494;2023-09-08T03:23:17;12.93;;;6.45;;
33184;SDS011;19550;42.872;25.494;2023-09-08T03:25:48;10.65;;;6.65;;
33184;SDS011;19550;42.872;25.494;2023-09-08T03:28:15;13.10;;;6.63;;
33184;SDS011;19550;42.872;25.494;2023-09-08T03:30:42;12.65;;;7.22;;
33184;SDS011;19550;42.872;25.494;2023-09-08T03:33:08;13.25;;;6.88;;
33184;SDS011;19550;42.872;25.494;2023-09-08T03:35:35;10.75;;;6.20;;
33184;SDS011;19550;42.872;25.494;2023-09-08T03:38:02;14.13;;;6.53;;
33184;SDS011;19550;42.872;25.494;2023-09-08T03:40:29;16.88;;;7.47;;
33184;SDS011;19550;42.872;25.494;2023-09-08T03:42:57;10.68;;;7.13;;
33184;SDS011;19550;42.872;25.494;2023-09-08T03:45:24;10.75;;;6.32;;
33184;SDS011;19550;42.872;25.494;2023-09-08T03:47:51;9.65;;;6.88;;
33184;SDS011;19550;42.872;25.494;2023-09-08T03:50:18;13.13;;;6.57;;
33184;SDS011;19550;42.872;25.494;2023-09-08T03:52:44;17.75;;;7.13;;
33184;SDS011;19550;42.872;25.494;2023-09-08T03:55:11;9.38;;;6.32;;
33184;SDS011;19550;42.872;25.494;2023-09-08T03:57:39;14.77;;;6.90;;
33184;SDS011;19550;42.872;25.494;2023-09-08T04:00:08;11.10;;;7.00;;
33184;SDS011;19550;42.872;25.494;2023-09-08T04:02:36;10.23;;;6.70;;
33184;SDS011;19550;42.872;25.494;2023-09-08T04:05:03;11.95;;;6.40;;
33184;SDS011;19550;42.872;25.494;2023-09-08T04:07:31;11.63;;;6.95;;
33184;SDS011;19550;42.872;25.494;2023-09-08T04:09:58;11.98;;;7.30;;
33184;SDS011;19550;42.872;25.494;2023-09-08T04:12:24;13.07;;;8.43;;
33184;SDS011;19550;42.872;25.494;2023-09-08T04:14:51;20.90;;;9.68;;
33184;SDS011;19550;42.872;25.494;2023-09-08T04:17:19;16.67;;;8.80;;
33184;SDS011;19550;42.872;25.494;2023-09-08T04:19:46;21.33;;;9.48;;
33184;SDS011;19550;42.872;25.494;2023-09-08T04:22:13;16.40;;;8.15;;
33184;SDS011;19550;42.872;25.494;2023-09-08T04:24:40;14.00;;;9.20;;
33184;SDS011;19550;42.872;25.494;2023-09-08T04:27:07;20.42;;;10.75;;
33184;SDS011;19550;42.872;25.494;2023-09-08T04:29:35;25.65;;;13.50;;
33184;SDS011;19550;42.872;25.494;2023-09-08T04:32:02;17.45;;;9.98;;
33184;SDS011;19550;42.872;25.494;2023-09-08T04:34:36;24.88;;;8.63;;
33184;SDS011;19550;42.872;25.494;2023-09-08T04:37:03;29.08;;;16.67;;
33184;SDS011;19550;42.872;25.494;2023-09-08T04:39:30;15.93;;;9.23;;
33184;SDS011;19550;42.872;25.494;2023-09-08T04:41:57;16.40;;;8.27;;
33184;SDS011;19550;42.872;25.494;2023-09-08T04:44:24;12.93;;;6.75;;
33184;SDS011;19550;42.872;25.494;2023-09-08T04:46:51;16.17;;;7.25;;
33184;SDS011;19550;42.872;25.494;2023-09-08T04:49:18;14.35;;;6.03;;
33184;SDS011;19550;42.872;25.494;2023-09-08T04:51:47;11.52;;;5.85;;
33184;SDS011;19550;42.872;25.494;2023-09-08T04:54:13;10.18;;;6.50;;
33184;SDS011;19550;42.872;25.494;2023-09-08T04:56:40;13.68;;;6.32;;
33184;SDS011;19550;42.872;25.494;2023-09-08T04:59:07;8.70;;;6.60;;
33184;SDS011;19550;42.872;25.494;2023-09-08T05:01:34;11.52;;;6.10;;
33184;SDS011;19550;42.872;25.494;2023-09-08T05:04:02;13.55;;;6.38;;
33184;SDS011;19550;42.872;25.494;2023-09-08T05:06:29;19.52;;;5.97;;
33184;SDS011;19550;42.872;25.494;2023-09-08T05:08:58;7.60;;;5.70;;
33184;SDS011;19550;42.872;25.494;2023-09-08T05:11:25;14.30;;;6.82;;
33184;SDS011;19550;42.872;25.494;2023-09-08T05:13:52;15.05;;;5.90;;
33184;SDS011;19550;42.872;25.494;2023-09-08T05:16:19;12.80;;;5.72;;
33184;SDS011;19550;42.872;25.494;2023-09-08T05:19:01;13.65;;;5.88;;
33184;SDS011;19550;42.872;25.494;2023-09-08T05:21:28;9.63;;;5.95;;
33184;SDS011;19550;42.872;25.494;2023-09-08T05:23:54;13.60;;;6.38;;
33184;SDS011;19550;42.872;25.494;2023-09-08T05:26:23;8.55;;;5.90;;
33184;SDS011;19550;42.872;25.494;2023-09-08T05:28:50;9.98;;;6.57;;
33184;SDS011;19550;42.872;25.494;2023-09-08T05:31:16;11.55;;;7.15;;
33184;SDS011;19550;42.872;25.494;2023-09-08T05:33:43;15.45;;;6.75;;
33184;SDS011;19550;42.872;25.494;2023-09-08T05:36:10;14.30;;;6.82;;
33184;SDS011;19550;42.872;25.494;2023-09-08T05:38:37;17.33;;;7.43;;
33184;SDS011;19550;42.872;25.494;2023-09-08T05:41:03;13.02;;;8.05;;
33184;SDS011;19550;42.872;25.494;2023-09-08T05:43:32;15.35;;;7.70;;
33184;SDS011;19550;42.872;25.494;2023-09-08T05:45:58;15.38;;;8.32;;
33184;SDS011;19550;42.872;25.494;2023-09-08T05:48:25;19.13;;;7.93;;
33184;SDS011;19550;42.872;25.494;2023-09-08T05:50:52;11.00;;;7.50;;
33184;SDS011;19550;42.872;25.494;2023-09-08T05:53:19;19.00;;;7.25;;
33184;SDS011;19550;42.872;25.494;2023-09-08T05:55:46;14.07;;;7.20;;
33184;SDS011;19550;42.872;25.494;2023-09-08T05:58:12;14.10;;;7.50;;
33184;SDS011;19550;42.872;25.494;2023-09-08T06:00:41;15.65;;;7.53;;
33184;SDS011;19550;42.872;25.494;2023-09-08T06:03:07;14.68;;;6.85;;
33184;SDS011;19550;42.872;25.494;2023-09-08T06:05:35;14.15;;;7.30;;
33184;SDS011;19550;42.872;25.494;2023-09-08T06:08:01;11.15;;;7.00;;
33184;SDS011;19550;42.872;25.494;2023-09-08T06:10:28;18.67;;;7.15;;
33184;SDS011;19550;42.872;25.494;2023-09-08T06:12:55;14.05;;;6.82;;
33184;SDS011;19550;42.872;25.494;2023-09-08T06:15:22;13.82;;;7.10;;
33184;SDS011;19550;42.872;25.494;2023-09-08T06:17:50;16.30;;;6.93;;
33184;SDS011;19550;42.872;25.494;2023-09-08T06:20:17;15.32;;;6.40;;
33184;SDS011;19550;42.872;25.494;2023-09-08T06:22:44;11.30;;;6.63;;
33184;SDS011;19550;42.872;25.494;2023-09-08T06:25:11;11.07;;;5.60;;
33184;SDS011;19550;42.872;25.494;2023-09-08T06:27:38;11.90;;;6.25;;
33184;SDS011;19550;42.872;25.494;2023-09-08T06:30:05;14.60;;;6.53;;
33184;SDS011;19550;42.872;25.494;2023-09-08T06:32:34;10.63;;;6.80;;
33184;SDS011;19550;42.872;25.494;2023-09-08T06:35:02;14.45;;;6.22;;
33184;SDS011;19550;42.872;25.494;2023-09-08T06:37:33;10.75;;;6.38;;
33184;SDS011;19550;42.872;25.494;2023-09-08T06:40:01;17.20;;;8.27;;
33184;SDS011;19550;42.872;25.494;2023-09-08T06:42:28;13.15;;;8.25;;
33184;SDS011;19550;42.872;25.494;2023-09-08T06:44:55;15.45;;;8.10;;
33184;SDS011;19550;42.872;25.494;2023-09-08T06:47:22;20.02;;;8.82;;
33184;SDS011;19550;42.872;25.494;2023-09-08T06:49:48;19.23;;;8.02;;
33184;SDS011;19550;42.872;25.494;2023-09-08T06:52:17;20.55;;;10.05;;
33184;SDS011;19550;42.872;25.494;2023-09-08T06:54:44;15.57;;;9.05;;
33184;SDS011;19550;42.872;25.494;2023-09-08T06:57:12;17.42;;;8.65;;
33184;SDS011;19550;42.872;25.494;2023-09-08T06:59:39;17.17;;;8.55;;
33184;SDS011;19550;42.872;25.494;2023-09-08T07:04:33;14.93;;;7.43;;
33184;SDS011;19550;42.872;25.494;2023-09-08T07:07:00;14.07;;;6.28;;
33184;SDS011;19550;42.872;25.494;2023-09-08T07:09:30;13.15;;;6.03;;
33184;SDS011;19550;42.872;25.494;2023-09-08T07:11:57;14.75;;;6.63;;
33184;SDS011;19550;42.872;25.494;2023-09-08T07:14:23;10.73;;;5.70;;
33184;SDS011;19550;42.872;25.494;2023-09-08T07:16:50;7.18;;;5.32;;
33184;SDS011;19550;42.872;25.494;2023-09-08T07:19:17;10.40;;;5.43;;
33184;SDS011;19550;42.872;25.494;2023-09-08T07:21:44;8.18;;;5.38;;
33184;SDS011;19550;42.872;25.494;2023-09-08T07:24:11;11.25;;;5.03;;
33184;SDS011;19550;42.872;25.494;2023-09-08T07:26:39;8.35;;;5.10;;
33184;SDS011;19550;42.872;25.494;2023-09-08T07:29:05;12.55;;;5.85;;
33184;SDS011;19550;42.872;25.494;2023-09-08T07:31:32;13.15;;;5.68;;
33184;SDS011;19550;42.872;25.494;2023-09-08T07:33:59;18.85;;;6.03;;
33184;SDS011;19550;42.872;25.494;2023-09-08T07:36:26;8.02;;;4.65;;
33184;SDS011;19550;42.872;25.494;2023-09-08T07:38:53;9.77;;;5.30;;
33184;SDS011;19550;42.872;25.494;2023-09-08T07:41:19;8.48;;;4.45;;
33184;SDS011;19550;42.872;25.494;2023-09-08T07:43:48;12.75;;;5.15;;
33184;SDS011;19550;42.872;25.494;2023-09-08T07:46:16;9.02;;;4.88;;
33184;SDS011;19550;42.872;25.494;2023-09-08T07:48:42;6.95;;;4.65;;
33184;SDS011;19550;42.872;25.494;2023-09-08T07:51:09;7.80;;;4.30;;
33184;SDS011;19550;42.872;25.494;2023-09-08T07:53:36;10.02;;;4.65;;
33184;SDS011;19550;42.872;25.494;2023-09-08T07:56:03;10.10;;;5.00;;
33184;SDS011;19550;42.872;25.494;2023-09-08T07:58:30;9.18;;;4.32;;
33184;SDS011;19550;42.872;25.494;2023-09-08T08:00:58;10.38;;;4.43;;
33184;SDS011;19550;42.872;25.494;2023-09-08T08:03:25;10.45;;;4.55;;
33184;SDS011;19550;42.872;25.494;2023-09-08T08:05:52;12.13;;;4.53;;
33184;SDS011;19550;42.872;25.494;2023-09-08T08:08:19;10.55;;;4.70;;
33184;SDS011;19550;42.872;25.494;2023-09-08T08:10:45;10.60;;;4.60;;
33184;SDS011;19550;42.872;25.494;2023-09-08T08:13:12;8.15;;;4.60;;
33184;SDS011;19550;42.872;25.494;2023-09-08T08:15:40;8.65;;;4.18;;
33184;SDS011;19550;42.872;25.494;2023-09-08T08:18:09;10.25;;;4.85;;
33184;SDS011;19550;42.872;25.494;2023-09-08T08:20:36;9.68;;;4.35;;
33184;SDS011;19550;42.872;25.494;2023-09-08T08:23:04;12.07;;;4.93;;
33184;SDS011;19550;42.872;25.494;2023-09-08T08:25:32;8.27;;;4.13;;
33184;SDS011;19550;42.872;25.494;2023-09-08T08:27:59;8.27;;;4.28;;
33184;SDS011;19550;42.872;25.494;2023-09-08T08:30:26;9.00;;;4.60;;
33184;SDS011;19550;42.872;25.494;2023-09-08T08:32:53;5.30;;;4.03;;
33184;SDS011;19550;42.872;25.494;2023-09-08T08:35:21;12.10;;;4.78;;
33184;SDS011;19550;42.872;25.494;2023-09-08T08:37:48;6.97;;;4.40;;
33184;SDS011;19550;42.872;25.494;2023-09-08T08:40:15;9.23;;;4.45;;
33184;SDS011;19550;42.872;25.494;2023-09-08T08:42:42;13.23;;;5.20;;
33184;SDS011;19550;42.872;25.494;2023-09-08T08:45:09;11.63;;;4.57;;
33184;SDS011;19550;42.872;25.494;2023-09-08T08:47:37;6.53;;;4.00;;
33184;SDS011;19550;42.872;25.494;2023-09-08T08:50:05;18.15;;;7.57;;
33184;SDS011;19550;42.872;25.494;2023-09-08T08:52:38;9.25;;;4.30;;
33184;SDS011;19550;42.872;25.494;2023-09-08T08:55:06;8.13;;;5.10;;
33184;SDS011;19550;42.872;25.494;2023-09-08T08:57:34;62.55;;;19.65;;
33184;SDS011;19550;42.872;25.494;2023-09-08T09:00:03;7.95;;;4.38;;
33184;SDS011;19550;42.872;25.494;2023-09-08T09:02:33;9.00;;;4.13;;
33184;SDS011;19550;42.872;25.494;2023-09-08T09:05:02;5.88;;;4.43;;
33184;SDS011;19550;42.872;25.494;2023-09-08T09:07:31;11.48;;;4.95;;
33184;SDS011;19550;42.872;25.494;2023-09-08T09:09:59;10.57;;;4.40;;
33184;SDS011;19550;42.872;25.494;2023-09-08T09:12:27;6.72;;;3.88;;
33184;SDS011;19550;42.872;25.494;2023-09-08T09:14:56;7.03;;;3.60;;
33184;SDS011;19550;42.872;25.494;2023-09-08T09:17:24;5.93;;;3.70;;
33184;SDS011;19550;42.872;25.494;2023-09-08T09:19:53;10.00;;;4.72;;
33184;SDS011;19550;42.872;25.494;2023-09-08T09:22:39;4.72;;;3.97;;
33184;SDS011;19550;42.872;25.494;2023-09-08T09:25:07;9.35;;;4.50;;
33184;SDS011;19550;42.872;25.494;2023-09-08T09:30:03;10.63;;;4.63;;
33184;SDS011;19550;42.872;25.494;2023-09-08T09:32:30;10.13;;;4.93;;
33184;SDS011;19550;42.872;25.494;2023-09-08T09:34:57;7.45;;;4.50;;
33184;SDS011;19550;42.872;25.494;2023-09-08T09:37:26;7.17;;;4.37;;
33184;SDS011;19550;42.872;25.494;2023-09-08T09:39:54;6.55;;;4.63;;
33184;SDS011;19550;42.872;25.494;2023-09-08T09:42:22;16.83;;;5.88;;
33184;SDS011;19550;42.872;25.494;2023-09-08T09:44:49;11.68;;;5.13;;
33184;SDS011;19550;42.872;25.494;2023-09-08T09:47:17;9.52;;;5.22;;
33184;SDS011;19550;42.872;25.494;2023-09-08T09:49:46;9.18;;;4.40;;
33184;SDS011;19550;42.872;25.494;2023-09-08T09:52:14;10.27;;;5.40;;
33184;SDS011;19550;42.872;25.494;2023-09-08T09:54:48;8.40;;;5.13;;
33184;SDS011;19550;42.872;25.494;2023-09-08T09:57:16;10.40;;;4.80;;
33184;SDS011;19550;42.872;25.494;2023-09-08T09:59:44;6.75;;;5.30;;
33184;SDS011;19550;42.872;25.494;2023-09-08T10:02:13;10.32;;;4.82;;
33184;SDS011;19550;42.872;25.494;2023-09-08T10:04:41;10.10;;;5.15;;
33184;SDS011;19550;42.872;25.494;2023-09-08T10:07:08;8.27;;;5.30;;
33184;SDS011;19550;42.872;25.494;2023-09-08T10:09:35;5.32;;;4.40;;
33184;SDS011;19550;42.872;25.494;2023-09-08T10:12:03;7.47;;;4.97;;
33184;SDS011;19550;42.872;25.494;2023-09-08T10:14:31;10.43;;;4.75;;
33184;SDS011;19550;42.872;25.494;2023-09-08T10:17:03;8.52;;;4.07;;
33184;SDS011;19550;42.872;25.494;2023-09-08T10:19:34;7.35;;;4.30;;
33184;SDS011;19550;42.872;25.494;2023-09-08T10:22:06;9.18;;;4.50;;
33184;SDS011;19550;42.872;25.494;2023-09-08T10:24:38;6.60;;;4.32;;
33184;SDS011;19550;42.872;25.494;2023-09-08T10:27:07;7.68;;;4.47;;
33184;SDS011;19550;42.872;25.494;2023-09-08T10:29:35;4.97;;;4.13;;
33184;SDS011;19550;42.872;25.494;2023-09-08T10:32:04;9.88;;;4.90;;
33184;SDS011;19550;42.872;25.494;2023-09-08T10:34:33;9.77;;;4.28;;
33184;SDS011;19550;42.872;25.494;2023-09-08T10:37:00;10.60;;;5.05;;
33184;SDS011;19550;42.872;25.494;2023-09-08T10:39:31;12.82;;;4.57;;
33184;SDS011;19550;42.872;25.494;2023-09-08T10:44:55;7.25;;;4.70;;
33184;SDS011;19550;42.872;25.494;2023-09-08T10:47:24;11.60;;;4.75;;
33184;SDS011;19550;42.872;25.494;2023-09-08T10:49:54;7.30;;;4.47;;
33184;SDS011;19550;42.872;25.494;2023-09-08T10:52:23;11.40;;;5.05;;
33184;SDS011;19550;42.872;25.494;2023-09-08T10:54:52;9.57;;;5.00;;
33184;SDS011;19550;42.872;25.494;2023-09-08T10:57:21;7.18;;;4.90;;
33184;SDS011;19550;42.872;25.494;2023-09-08T10:59:51;7.97;;;4.93;;
33184;SDS011;19550;42.872;25.494;2023-09-08T11:02:33;9.52;;;4.72;;
33184;SDS011;19550;42.872;25.494;2023-09-08T11:05:01;14.95;;;5.18;;
33184;SDS011;19550;42.872;25.494;2023-09-08T11:07:30;5.85;;;4.68;;
33184;SDS011;19550;42.872;25.494;2023-09-08T11:09:57;9.00;;;4.30;;
33184;SDS011;19550;42.872;25.494;2023-09-08T11:12:25;6.20;;;4.20;;
33184;SDS011;19550;42.872;25.494;2023-09-08T11:14:53;8.35;;;4.32;;
33184;SDS011;19550;42.872;25.494;2023-09-08T11:17:20;9.13;;;5.20;;
33184;SDS011;19550;42.872;25.494;2023-09-08T11:19:52;9.10;;;4.50;;
33184;SDS011;19550;42.872;25.494;2023-09-08T11:22:21;10.85;;;5.00;;
33184;SDS011;19550;42.872;25.494;2023-09-08T11:24:49;9.55;;;4.90;;
33184;SDS011;19550;42.872;25.494;2023-09-08T11:27:17;8.52;;;4.75;;
33184;SDS011;19550;42.872;25.494;2023-09-08T11:29:44;7.80;;;4.50;;
33184;SDS011;19550;42.872;25.494;2023-09-08T11:32:11;8.63;;;4.85;;
33184;SDS011;19550;42.872;25.494;2023-09-08T11:34:38;12.55;;;5.18;;
33184;SDS011;19550;42.872;25.494;2023-09-08T11:37:09;13.43;;;4.70;;
33184;SDS011;19550;42.872;25.494;2023-09-08T11:39:38;10.65;;;4.35;;
33184;SDS011;19550;42.872;25.494;2023-09-08T11:42:05;12.82;;;4.90;;
33184;SDS011;19550;42.872;25.494;2023-09-08T11:44:32;9.65;;;4.43;;
33184;SDS011;19550;42.872;25.494;2023-09-08T11:47:00;7.55;;;5.05;;
33184;SDS011;19550;42.872;25.494;2023-09-08T11:49:33;8.00;;;4.70;;
33184;SDS011;19550;42.872;25.494;2023-09-08T11:52:00;13.18;;;5.20;;
33184;SDS011;19550;42.872;25.494;2023-09-08T11:54:28;11.30;;;4.88;;
33184;SDS011;19550;42.872;25.494;2023-09-08T11:56:57;9.98;;;4.25;;
33184;SDS011;19550;42.872;25.494;2023-09-08T11:59:25;7.93;;;4.68;;
33184;SDS011;19550;42.872;25.494;2023-09-08T12:01:53;8.90;;;4.57;;
33184;SDS011;19550;42.872;25.494;2023-09-08T12:04:21;11.98;;;5.07;;
33184;SDS011;19550;42.872;25.494;2023-09-08T12:06:48;9.93;;;4.85;;
33184;SDS011;19550;42.872;25.494;2023-09-08T12:09:16;9.82;;;4.60;;
33184;SDS011;19550;42.872;25.494;2023-09-08T12:11:44;12.18;;;4.70;;
33184;SDS011;19550;42.872;25.494;2023-09-08T12:14:12;6.70;;;4.55;;
33184;SDS011;19550;42.872;25.494;2023-09-08T12:16:40;8.75;;;4.78;;
33184;SDS011;19550;42.872;25.494;2023-09-08T12:19:08;9.13;;;4.70;;
33184;SDS011;19550;42.872;25.494;2023-09-08T12:21:54;6.90;;;4.43;;
33184;SDS011;19550;42.872;25.494;2023-09-08T12:27:15;15.25;;;5.00;;
33184;SDS011;19550;42.872;25.494;2023-09-08T12:29:51;10.20;;;4.95;;
33184;SDS011;19550;42.872;25.494;2023-09-08T12:32:19;9.30;;;4.82;;
33184;SDS011;19550;42.872;25.494;2023-09-08T12:34:46;10.32;;;5.20;;
33184;SDS011;19550;42.872;25.494;2023-09-08T12:37:13;7.22;;;4.50;;
33184;SDS011;19550;42.872;25.494;2023-09-08T12:39:39;9.70;;;4.97;;
33184;SDS011;19550;42.872;25.494;2023-09-08T12:42:06;11.23;;;4.70;;
33184;SDS011;19550;42.872;25.494;2023-09-08T12:44:34;7.88;;;4.68;;
33184;SDS011;19550;42.872;25.494;2023-09-08T12:47:01;5.63;;;4.43;;
33184;SDS011;19550;42.872;25.494;2023-09-08T12:49:28;7.53;;;4.43;;
33184;SDS011;19550;42.872;25.494;2023-09-08T12:51:55;11.85;;;4.55;;
33184;SDS011;19550;42.872;25.494;2023-09-08T12:54:22;9.70;;;4.68;;
33184;SDS011;19550;42.872;25.494;2023-09-08T12:56:49;11.20;;;4.75;;
33184;SDS011;19550;42.872;25.494;2023-09-08T12:59:16;12.32;;;4.70;;
33184;SDS011;19550;42.872;25.494;2023-09-08T13:01:44;7.32;;;4.38;;
33184;SDS011;19550;42.872;25.494;2023-09-08T13:04:11;12.27;;;4.95;;
33184;SDS011;19550;42.872;25.494;2023-09-08T13:06:38;5.70;;;4.45;;
33184;SDS011;19550;42.872;25.494;2023-09-08T13:09:05;9.30;;;4.50;;
33184;SDS011;19550;42.872;25.494;2023-09-08T13:11:32;6.50;;;4.57;;
33184;SDS011;19550;42.872;25.494;2023-09-08T13:13:59;6.82;;;4.75;;
33184;SDS011;19550;42.872;25.494;2023-09-08T13:16:26;9.30;;;4.57;;
33184;SDS011;19550;42.872;25.494;2023-09-08T13:18:54;6.80;;;4.43;;
33184;SDS011;19550;42.872;25.494;2023-09-08T13:21:21;11.32;;;5.00;;
33184;SDS011;19550;42.872;25.494;2023-09-08T13:23:48;7.82;;;4.38;;
33184;SDS011;19550;42.872;25.494;2023-09-08T13:26:14;9.25;;;4.50;;
33184;SDS011;19550;42.872;25.494;2023-09-08T13:28:41;7.03;;;4.50;;
33184;SDS011;19550;42.872;25.494;2023-09-08T13:31:08;8.65;;;4.70;;
33184;SDS011;19550;42.872;25.494;2023-09-08T13:33:35;11.77;;;4.80;;
33184;SDS011;19550;42.872;25.494;2023-09-08T13:36:04;12.82;;;4.78;;
33184;SDS011;19550;42.872;25.494;2023-09-08T13:38:32;10.00;;;4.53;;
33184;SDS011;19550;42.872;25.494;2023-09-08T13:40:59;8.90;;;5.05;;
33184;SDS011;19550;42.872;25.494;2023-09-08T13:43:26;11.77;;;5.28;;
33184;SDS011;19550;42.872;25.494;2023-09-08T13:45:53;5.70;;;4.47;;
33184;SDS011;19550;42.872;25.494;2023-09-08T13:48:20;8.70;;;4.45;;
33184;SDS011;19550;42.872;25.494;2023-09-08T13:50:47;7.18;;;4.60;;
33184;SDS011;19550;42.872;25.494;2023-09-08T13:53:15;11.20;;;4.30;;
33184;SDS011;19550;42.872;25.494;2023-09-08T13:55:42;11.50;;;4.60;;
33184;SDS011;19550;42.872;25.494;2023-09-08T13:58:09;8.07;;;4.65;;
33184;SDS011;19550;42.872;25.494;2023-09-08T14:00:36;9.52;;;5.03;;
33184;SDS011;19550;42.872;25.494;2023-09-08T14:03:04;8.70;;;4.90;;
33184;SDS011;19550;42.872;25.494;2023-09-08T14:05:31;8.75;;;4.55;;
33184;SDS011;19550;42.872;25.494;2023-09-08T14:07:58;9.50;;;4.30;;
33184;SDS011;19550;42.872;25.494;2023-09-08T14:10:26;7.65;;;4.45;;
33184;SDS011;19550;42.872;25.494;2023-09-08T14:12:53;10.32;;;4.63;;
33184;SDS011;19550;42.872;25.494;2023-09-08T14:15:20;7.80;;;4.35;;
33184;SDS011;19550;42.872;25.494;2023-09-08T14:17:46;8.93;;;4.32;;
33184;SDS011;19550;42.872;25.494;2023-09-08T14:20:13;9.25;;;4.50;;
33184;SDS011;19550;42.872;25.494;2023-09-08T14:22:40;7.57;;;3.83;;
33184;SDS011;19550;42.872;25.494;2023-09-08T14:25:07;8.80;;;4.70;;
33184;SDS011;19550;42.872;25.494;2023-09-08T14:27:36;7.35;;;4.60;;
33184;SDS011;19550;42.872;25.494;2023-09-08T14:30:04;10.13;;;4.63;;
33184;SDS011;19550;42.872;25.494;2023-09-08T14:32:31;8.55;;;4.80;;
33184;SDS011;19550;42.872;25.494;2023-09-08T14:35:00;8.60;;;4.28;;
33184;SDS011;19550;42.872;25.494;2023-09-08T14:37:27;7.35;;;4.60;;
33184;SDS011;19550;42.872;25.494;2023-09-08T14:39:54;7.28;;;4.68;;